Galena Park, TX (77547)

12:41 PM CST on November 26, 2014 (GMT -0600)
Port of Houston | Change Station
CLOSE
Current Station
Personal Weather Station
Location: Houston, TX
Elevation: 30 ft
Nearby Weather Stations

Elev 30 ft 29.72 °N, 95.27 °W | Updated 10 minutes ago

Clear
Clear
70.1 °F
Feels Like 76 °F
N
9.0
Wind Variable Wind from ESE
Gusts 18.0 mph

Today
High -- | Low -- °F
--% Chance of Precip.
Yesterday
High -- | Low -- °F
Precip. -- in
6:54 AM 5:21 PM
Waxing Crescent, 21% visible
Pressure 30.23 in
Visibility 10.0 miles
Clouds Clear
Heat Index 76 °F
Dew Point 39 °F
Humidity 32%
Rainfall 0.00 in
Snow Depth Not available.
UV 5 out of 12
Pollen 3.40 out of 12
Air Quality Not available.
Flu Activity Not available.
METAR KHOU 261753Z 24014KT 10SM CLR 21/01 A3022 RMK AO2 SLP237 T02060011 10206 20078 58011

More Conditions Fewer Conditions

Pressure 30.23 in
Visibility 10.0 miles
Clouds Clear
Heat Index 76 °F
Dew Point 39 °F
Humidity 32%
Rainfall 0.00 in
Snow Depth Not available.
UV 5 out of 12
Pollen 3.40 out of 12
Air Quality Not available.
Flu Activity Not available.
METAR KHOU 261753Z 24014KT 10SM CLR 21/01 A3022 RMK AO2 SLP237 T02060011 10206 20078 58011

More Conditions Fewer Conditions

10-Day Weather Forecast

Almanac

Astronomy

Nov. 26, 2014 Rise Set
Actual Time
Civil Twilight
Nautical Twilight
Astronomical Twilight
Moon
Length of Visible Light
Length of Day
Tomorrow will be .
, % of the Moon is Illuminated

Today's Extremes

State Highs State Lows

Community

WunderPhotos

Upload Photos

1,773,827 photos uploaded!

WunderBlogs® & News

Nearby

Air Quality

  Air Quality AQ Index Pollutant
Not available.

Snow Depth

Station Depth Elevation

Earthquake Activity

City Distance Mag. Time & Date
Minimum magnitude displayed is 2.5.

Coastal Water Temperatures

Place Temperature

Nearby Weather Stations